sensor_id;sensor_type;location;lat;lon;timestamp;temperature;humidity
43991;DHT22;29654;50.784;20.604;2023-04-24T00:00:59;15.40;41.20
43991;DHT22;29654;50.784;20.604;2023-04-24T00:06:03;15.30;41.20
43991;DHT22;29654;50.784;20.604;2023-04-24T00:11:08;15.30;41.40
43991;DHT22;29654;50.784;20.604;2023-04-24T00:16:11;15.20;41.70
43991;DHT22;29654;50.784;20.604;2023-04-24T00:21:14;15.20;41.60
43991;DHT22;29654;50.784;20.604;2023-04-24T00:26:18;15.10;41.80
43991;DHT22;29654;50.784;20.604;2023-04-24T00:31:21;15.00;41.90
43991;DHT22;29654;50.784;20.604;2023-04-24T00:36:23;15.00;41.90
43991;DHT22;29654;50.784;20.604;2023-04-24T00:41:27;14.90;42.10
43991;DHT22;29654;50.784;20.604;2023-04-24T00:46:30;14.90;42.30
43991;DHT22;29654;50.784;20.604;2023-04-24T00:51:34;14.80;42.20
43991;DHT22;29654;50.784;20.604;2023-04-24T00:56:39;14.80;42.30
43991;DHT22;29654;50.784;20.604;2023-04-24T01:01:45;14.80;42.70
43991;DHT22;29654;50.784;20.604;2023-04-24T01:06:48;14.80;42.50
43991;DHT22;29654;50.784;20.604;2023-04-24T01:11:54;14.70;42.60
43991;DHT22;29654;50.784;20.604;2023-04-24T01:16:57;14.70;42.90
43991;DHT22;29654;50.784;20.604;2023-04-24T01:22:02;14.60;42.70
43991;DHT22;29654;50.784;20.604;2023-04-24T01:27:08;14.60;42.90
43991;DHT22;29654;50.784;20.604;2023-04-24T01:32:11;14.60;43.20
43991;DHT22;29654;50.784;20.604;2023-04-24T01:37:15;14.60;43.10
43991;DHT22;29654;50.784;20.604;2023-04-24T01:42:19;14.60;43.10
43991;DHT22;29654;50.784;20.604;2023-04-24T01:47:21;14.60;43.30
43991;DHT22;29654;50.784;20.604;2023-04-24T01:52:25;14.50;43.10
43991;DHT22;29654;50.784;20.604;2023-04-24T01:57:31;14.50;43.20
43991;DHT22;29654;50.784;20.604;2023-04-24T02:02:34;14.50;43.50
43991;DHT22;29654;50.784;20.604;2023-04-24T02:07:38;14.40;43.20
43991;DHT22;29654;50.784;20.604;2023-04-24T02:12:42;14.40;43.40
43991;DHT22;29654;50.784;20.604;2023-04-24T02:17:44;14.40;43.50
43991;DHT22;29654;50.784;20.604;2023-04-24T02:22:47;14.30;43.40
43991;DHT22;29654;50.784;20.604;2023-04-24T02:27:51;14.30;43.50
43991;DHT22;29654;50.784;20.604;2023-04-24T02:32:53;14.20;43.60
43991;DHT22;29654;50.784;20.604;2023-04-24T02:37:56;14.20;43.50
43991;DHT22;29654;50.784;20.604;2023-04-24T02:43:00;14.10;43.60
43991;DHT22;29654;50.784;20.604;2023-04-24T02:48:03;14.10;43.70
43991;DHT22;29654;50.784;20.604;2023-04-24T02:53:05;14.00;43.70
43991;DHT22;29654;50.784;20.604;2023-04-24T02:58:09;14.00;43.70
43991;DHT22;29654;50.784;20.604;2023-04-24T03:03:13;14.00;44.00
43991;DHT22;29654;50.784;20.604;2023-04-24T03:08:17;13.90;43.90
43991;DHT22;29654;50.784;20.604;2023-04-24T03:13:21;13.90;44.00
43991;DHT22;29654;50.784;20.604;2023-04-24T03:18:23;13.90;44.20
43991;DHT22;29654;50.784;20.604;2023-04-24T03:23:27;13.90;44.00
43991;DHT22;29654;50.784;20.604;2023-04-24T03:28:31;13.80;44.10
43991;DHT22;29654;50.784;20.604;2023-04-24T03:33:37;13.80;44.30
43991;DHT22;29654;50.784;20.604;2023-04-24T03:38:41;13.70;44.20
43991;DHT22;29654;50.784;20.604;2023-04-24T03:44:01;13.70;44.30
43991;DHT22;29654;50.784;20.604;2023-04-24T03:49:05;13.70;44.50
43991;DHT22;29654;50.784;20.604;2023-04-24T03:54:13;13.70;44.50
43991;DHT22;29654;50.784;20.604;2023-04-24T03:59:17;13.70;44.60
43991;DHT22;29654;50.784;20.604;2023-04-24T04:04:25;13.70;44.90
43991;DHT22;29654;50.784;20.604;2023-04-24T04:09:28;13.80;44.90
43991;DHT22;29654;50.784;20.604;2023-04-24T04:14:32;13.80;45.00
43991;DHT22;29654;50.784;20.604;2023-04-24T04:19:34;13.90;45.30
43991;DHT22;29654;50.784;20.604;2023-04-24T04:24:38;13.90;45.30
43991;DHT22;29654;50.784;20.604;2023-04-24T04:29:44;14.00;45.40
43991;DHT22;29654;50.784;20.604;2023-04-24T04:34:48;14.20;45.60
43991;DHT22;29654;50.784;20.604;2023-04-24T04:39:55;14.30;45.60
43991;DHT22;29654;50.784;20.604;2023-04-24T04:45:03;14.50;45.60
43991;DHT22;29654;50.784;20.604;2023-04-24T04:50:18;14.60;45.80
43991;DHT22;29654;50.784;20.604;2023-04-24T04:55:23;14.80;45.70
43991;DHT22;29654;50.784;20.604;2023-04-24T05:01:00;15.10;46.00
43991;DHT22;29654;50.784;20.604;2023-04-24T05:06:08;15.40;46.20
43991;DHT22;29654;50.784;20.604;2023-04-24T05:11:13;15.70;46.00
43991;DHT22;29654;50.784;20.604;2023-04-24T05:16:18;16.00;45.90
43991;DHT22;29654;50.784;20.604;2023-04-24T05:21:22;16.30;45.80
43991;DHT22;29654;50.784;20.604;2023-04-24T05:26:26;16.50;45.50
43991;DHT22;29654;50.784;20.604;2023-04-24T05:31:33;16.80;45.50
43991;DHT22;29654;50.784;20.604;2023-04-24T05:36:36;17.10;45.30
43991;DHT22;29654;50.784;20.604;2023-04-24T05:41:38;17.40;45.20
43991;DHT22;29654;50.784;20.604;2023-04-24T05:46:42;17.80;45.00
43991;DHT22;29654;50.784;20.604;2023-04-24T05:51:46;18.20;44.90
43991;DHT22;29654;50.784;20.604;2023-04-24T05:56:51;18.60;44.50
43991;DHT22;29654;50.784;20.604;2023-04-24T06:02:07;18.90;44.20
43991;DHT22;29654;50.784;20.604;2023-04-24T06:07:10;19.30;43.70
43991;DHT22;29654;50.784;20.604;2023-04-24T06:12:15;19.60;43.30
43991;DHT22;29654;50.784;20.604;2023-04-24T06:17:35;19.90;42.90
43991;DHT22;29654;50.784;20.604;2023-04-24T06:22:38;20.10;42.60
43991;DHT22;29654;50.784;20.604;2023-04-24T06:27:41;20.40;42.40
43991;DHT22;29654;50.784;20.604;2023-04-24T06:32:45;20.70;42.40
43991;DHT22;29654;50.784;20.604;2023-04-24T06:37:49;21.00;42.10
43991;DHT22;29654;50.784;20.604;2023-04-24T06:42:53;21.30;41.70
43991;DHT22;29654;50.784;20.604;2023-04-24T06:47:57;21.50;41.30
43991;DHT22;29654;50.784;20.604;2023-04-24T06:52:59;21.70;41.00
43991;DHT22;29654;50.784;20.604;2023-04-24T06:58:02;21.90;40.80
43991;DHT22;29654;50.784;20.604;2023-04-24T07:03:06;22.10;40.20
43991;DHT22;29654;50.784;20.604;2023-04-24T07:08:08;22.20;39.90
43991;DHT22;29654;50.784;20.604;2023-04-24T07:13:12;22.30;39.60
43991;DHT22;29654;50.784;20.604;2023-04-24T07:18:17;22.50;39.70
43991;DHT22;29654;50.784;20.604;2023-04-24T07:23:19;22.60;39.60
43991;DHT22;29654;50.784;20.604;2023-04-24T07:28:22;22.80;39.50
43991;DHT22;29654;50.784;20.604;2023-04-24T07:33:26;23.10;39.30
43991;DHT22;29654;50.784;20.604;2023-04-24T07:38:29;23.30;39.00
43991;DHT22;29654;50.784;20.604;2023-04-24T07:43:32;23.60;38.70
43991;DHT22;29654;50.784;20.604;2023-04-24T07:48:36;23.80;38.30
43991;DHT22;29654;50.784;20.604;2023-04-24T07:53:39;23.90;37.80
43991;DHT22;29654;50.784;20.604;2023-04-24T07:58:41;24.10;37.70
43991;DHT22;29654;50.784;20.604;2023-04-24T08:03:45;24.30;37.70
43991;DHT22;29654;50.784;20.604;2023-04-24T08:08:48;24.50;37.00
43991;DHT22;29654;50.784;20.604;2023-04-24T08:13:50;24.60;36.50
43991;DHT22;29654;50.784;20.604;2023-04-24T08:18:54;24.90;35.70
43991;DHT22;29654;50.784;20.604;2023-04-24T08:23:57;25.10;35.00
43991;DHT22;29654;50.784;20.604;2023-04-24T08:29:00;25.30;35.20
43991;DHT22;29654;50.784;20.604;2023-04-24T08:34:04;25.60;34.00
43991;DHT22;29654;50.784;20.604;2023-04-24T08:39:06;25.80;33.40
43991;DHT22;29654;50.784;20.604;2023-04-24T08:44:09;26.00;33.40
43991;DHT22;29654;50.784;20.604;2023-04-24T08:49:14;26.20;33.20
43991;DHT22;29654;50.784;20.604;2023-04-24T08:54:18;26.30;32.10
43991;DHT22;29654;50.784;20.604;2023-04-24T08:59:21;26.40;31.70
43991;DHT22;29654;50.784;20.604;2023-04-24T09:04:25;26.50;31.50
43991;DHT22;29654;50.784;20.604;2023-04-24T09:09:30;26.60;31.50
43991;DHT22;29654;50.784;20.604;2023-04-24T09:14:34;26.70;31.60
43991;DHT22;29654;50.784;20.604;2023-04-24T09:19:41;26.90;31.50
43991;DHT22;29654;50.784;20.604;2023-04-24T09:24:45;27.00;31.20
43991;DHT22;29654;50.784;20.604;2023-04-24T09:29:54;27.10;31.20
43991;DHT22;29654;50.784;20.604;2023-04-24T09:35:12;27.20;29.90
43991;DHT22;29654;50.784;20.604;2023-04-24T09:40:17;27.30;30.00
43991;DHT22;29654;50.784;20.604;2023-04-24T09:45:20;27.30;30.90
43991;DHT22;29654;50.784;20.604;2023-04-24T09:50:24;27.30;30.60
43991;DHT22;29654;50.784;20.604;2023-04-24T09:55:27;27.40;30.80
43991;DHT22;29654;50.784;20.604;2023-04-24T10:00:32;27.50;30.10
43991;DHT22;29654;50.784;20.604;2023-04-24T10:05:37;27.50;30.00
43991;DHT22;29654;50.784;20.604;2023-04-24T10:10:41;27.40;29.40
43991;DHT22;29654;50.784;20.604;2023-04-24T10:15:45;27.40;29.30
43991;DHT22;29654;50.784;20.604;2023-04-24T10:20:50;27.30;29.30
43991;DHT22;29654;50.784;20.604;2023-04-24T10:25:55;27.20;29.20
43991;DHT22;29654;50.784;20.604;2023-04-24T10:30:59;27.10;29.10
43991;DHT22;29654;50.784;20.604;2023-04-24T10:36:04;27.00;29.20
43991;DHT22;29654;50.784;20.604;2023-04-24T10:41:08;27.00;29.20
43991;DHT22;29654;50.784;20.604;2023-04-24T10:46:19;26.80;29.10
43991;DHT22;29654;50.784;20.604;2023-04-24T10:51:26;26.80;29.10
43991;DHT22;29654;50.784;20.604;2023-04-24T10:56:46;26.80;29.10
43991;DHT22;29654;50.784;20.604;2023-04-24T11:01:53;26.80;29.10
43991;DHT22;29654;50.784;20.604;2023-04-24T11:06:58;26.80;28.80
43991;DHT22;29654;50.784;20.604;2023-04-24T11:12:05;26.90;29.10
43991;DHT22;29654;50.784;20.604;2023-04-24T11:17:28;26.90;28.70
43991;DHT22;29654;50.784;20.604;2023-04-24T11:22:34;27.10;28.70
43991;DHT22;29654;50.784;20.604;2023-04-24T11:27:40;27.20;29.20
43991;DHT22;29654;50.784;20.604;2023-04-24T11:32:46;27.40;28.60
43991;DHT22;29654;50.784;20.604;2023-04-24T11:37:52;27.50;28.40
43991;DHT22;29654;50.784;20.604;2023-04-24T11:42:55;27.50;28.00
43991;DHT22;29654;50.784;20.604;2023-04-24T11:47:58;27.40;27.80
43991;DHT22;29654;50.784;20.604;2023-04-24T11:53:02;27.30;27.70
43991;DHT22;29654;50.784;20.604;2023-04-24T11:58:06;27.20;27.60
43991;DHT22;29654;50.784;20.604;2023-04-24T12:03:09;27.10;27.90
43991;DHT22;29654;50.784;20.604;2023-04-24T12:08:27;27.10;27.60
43991;DHT22;29654;50.784;20.604;2023-04-24T12:13:30;27.10;27.30
43991;DHT22;29654;50.784;20.604;2023-04-24T12:18:33;27.10;27.60
43991;DHT22;29654;50.784;20.604;2023-04-24T12:23:37;27.20;27.20
43991;DHT22;29654;50.784;20.604;2023-04-24T12:28:40;27.20;27.30
43991;DHT22;29654;50.784;20.604;2023-04-24T12:33:42;27.40;27.70
43991;DHT22;29654;50.784;20.604;2023-04-24T12:38:46;27.50;27.10
43991;DHT22;29654;50.784;20.604;2023-04-24T12:43:55;27.70;27.20
43991;DHT22;29654;50.784;20.604;2023-04-24T12:48:57;27.80;27.10
43991;DHT22;29654;50.784;20.604;2023-04-24T12:54:02;27.90;26.90
43991;DHT22;29654;50.784;20.604;2023-04-24T12:59:06;27.90;26.60
43991;DHT22;29654;50.784;20.604;2023-04-24T13:04:08;27.90;26.80
43991;DHT22;29654;50.784;20.604;2023-04-24T13:09:12;28.00;26.80
43991;DHT22;29654;50.784;20.604;2023-04-24T13:14:14;28.00;26.40
43991;DHT22;29654;50.784;20.604;2023-04-24T13:19:18;28.00;26.70
43991;DHT22;29654;50.784;20.604;2023-04-24T13:24:22;28.00;26.70
43991;DHT22;29654;50.784;20.604;2023-04-24T13:29:26;28.10;26.60
43991;DHT22;29654;50.784;20.604;2023-04-24T13:34:28;28.10;26.70
43991;DHT22;29654;50.784;20.604;2023-04-24T13:39:36;27.90;26.40
43991;DHT22;29654;50.784;20.604;2023-04-24T13:44:39;27.80;26.30
43991;DHT22;29654;50.784;20.604;2023-04-24T13:49:42;27.70;26.50
43991;DHT22;29654;50.784;20.604;2023-04-24T13:54:45;27.70;26.30
43991;DHT22;29654;50.784;20.604;2023-04-24T13:59:48;27.70;26.30
43991;DHT22;29654;50.784;20.604;2023-04-24T14:04:51;27.60;26.40
43991;DHT22;29654;50.784;20.604;2023-04-24T14:09:55;27.60;26.50
43991;DHT22;29654;50.784;20.604;2023-04-24T14:14:58;27.50;26.50
43991;DHT22;29654;50.784;20.604;2023-04-24T14:20:00;27.40;26.70
43991;DHT22;29654;50.784;20.604;2023-04-24T14:25:07;27.30;26.90
43991;DHT22;29654;50.784;20.604;2023-04-24T14:30:10;27.30;26.90
43991;DHT22;29654;50.784;20.604;2023-04-24T14:35:14;27.20;26.80
43991;DHT22;29654;50.784;20.604;2023-04-24T14:40:18;27.20;27.10
43991;DHT22;29654;50.784;20.604;2023-04-24T14:45:21;27.10;27.10
43991;DHT22;29654;50.784;20.604;2023-04-24T14:50:23;26.90;27.30
43991;DHT22;29654;50.784;20.604;2023-04-24T14:55:30;26.80;27.50
43991;DHT22;29654;50.784;20.604;2023-04-24T15:00:34;26.70;27.60
43991;DHT22;29654;50.784;20.604;2023-04-24T15:05:36;26.60;27.90
43991;DHT22;29654;50.784;20.604;2023-04-24T15:10:40;26.60;28.00
43991;DHT22;29654;50.784;20.604;2023-04-24T15:15:43;26.60;28.10
43991;DHT22;29654;50.784;20.604;2023-04-24T15:20:45;26.60;28.10
43991;DHT22;29654;50.784;20.604;2023-04-24T15:25:49;26.70;28.10
43991;DHT22;29654;50.784;20.604;2023-04-24T15:30:52;26.70;28.10
43991;DHT22;29654;50.784;20.604;2023-04-24T15:35:55;26.70;28.10
43991;DHT22;29654;50.784;20.604;2023-04-24T15:40:59;26.60;28.20
43991;DHT22;29654;50.784;20.604;2023-04-24T15:46:01;26.50;28.50
43991;DHT22;29654;50.784;20.604;2023-04-24T15:51:04;26.40;28.60
43991;DHT22;29654;50.784;20.604;2023-04-24T15:56:09;26.30;28.80
43991;DHT22;29654;50.784;20.604;2023-04-24T16:01:11;26.20;29.20
43991;DHT22;29654;50.784;20.604;2023-04-24T16:06:14;26.00;29.40
43991;DHT22;29654;50.784;20.604;2023-04-24T16:11:18;25.90;29.70
43991;DHT22;29654;50.784;20.604;2023-04-24T16:16:20;25.70;29.80
43991;DHT22;29654;50.784;20.604;2023-04-24T16:21:23;25.60;30.00
43991;DHT22;29654;50.784;20.604;2023-04-24T16:26:28;25.40;30.00
43991;DHT22;29654;50.784;20.604;2023-04-24T16:31:30;25.20;30.20
43991;DHT22;29654;50.784;20.604;2023-04-24T16:36:33;25.00;30.40
43991;DHT22;29654;50.784;20.604;2023-04-24T16:41:38;24.80;30.60
43991;DHT22;29654;50.784;20.604;2023-04-24T16:46:41;24.70;31.10
43991;DHT22;29654;50.784;20.604;2023-04-24T16:51:43;24.50;31.20
43991;DHT22;29654;50.784;20.604;2023-04-24T16:56:48;24.40;31.50
43991;DHT22;29654;50.784;20.604;2023-04-24T17:01:51;24.30;31.90
43991;DHT22;29654;50.784;20.604;2023-04-24T17:06:54;24.20;32.00
43991;DHT22;29654;50.784;20.604;2023-04-24T17:11:58;24.10;32.20
43991;DHT22;29654;50.784;20.604;2023-04-24T17:17:02;24.10;32.80
43991;DHT22;29654;50.784;20.604;2023-04-24T17:22:04;23.90;32.70
43991;DHT22;29654;50.784;20.604;2023-04-24T17:27:08;23.90;33.00
43991;DHT22;29654;50.784;20.604;2023-04-24T17:32:11;23.80;33.40
43991;DHT22;29654;50.784;20.604;2023-04-24T17:37:13;23.70;33.60
43991;DHT22;29654;50.784;20.604;2023-04-24T17:42:20;23.60;33.70
43991;DHT22;29654;50.784;20.604;2023-04-24T17:47:23;23.50;34.10
43991;DHT22;29654;50.784;20.604;2023-04-24T17:52:27;23.40;34.00
43991;DHT22;29654;50.784;20.604;2023-04-24T17:57:30;23.20;34.10
43991;DHT22;29654;50.784;20.604;2023-04-24T18:02:33;23.10;34.40
43991;DHT22;29654;50.784;20.604;2023-04-24T18:07:36;23.00;34.40
43991;DHT22;29654;50.784;20.604;2023-04-24T18:12:40;22.90;34.60
43991;DHT22;29654;50.784;20.604;2023-04-24T18:17:43;22.80;35.50
43991;DHT22;29654;50.784;20.604;2023-04-24T18:22:46;22.70;35.00
43991;DHT22;29654;50.784;20.604;2023-04-24T18:27:50;22.60;35.50
43991;DHT22;29654;50.784;20.604;2023-04-24T18:32:53;22.50;35.90
43991;DHT22;29654;50.784;20.604;2023-04-24T18:37:56;22.40;35.90
43991;DHT22;29654;50.784;20.604;2023-04-24T18:43:00;22.20;36.10
43991;DHT22;29654;50.784;20.604;2023-04-24T18:48:03;22.10;36.50
43991;DHT22;29654;50.784;20.604;2023-04-24T18:53:06;21.90;36.40
43991;DHT22;29654;50.784;20.604;2023-04-24T18:58:14;21.80;36.80
43991;DHT22;29654;50.784;20.604;2023-04-24T19:03:16;21.60;37.10
43991;DHT22;29654;50.784;20.604;2023-04-24T19:08:19;21.40;37.00
43991;DHT22;29654;50.784;20.604;2023-04-24T19:13:23;21.30;37.10
43991;DHT22;29654;50.784;20.604;2023-04-24T19:18:26;21.10;37.30
43991;DHT22;29654;50.784;20.604;2023-04-24T19:23:29;21.00;37.30
43991;DHT22;29654;50.784;20.604;2023-04-24T19:28:34;20.90;37.50
43991;DHT22;29654;50.784;20.604;2023-04-24T19:33:37;20.80;37.60
43991;DHT22;29654;50.784;20.604;2023-04-24T19:38:39;20.70;37.70
43991;DHT22;29654;50.784;20.604;2023-04-24T19:43:43;20.60;37.70
43991;DHT22;29654;50.784;20.604;2023-04-24T19:48:47;20.50;38.10
43991;DHT22;29654;50.784;20.604;2023-04-24T19:53:49;20.40;38.10
43991;DHT22;29654;50.784;20.604;2023-04-24T19:58:53;20.30;38.20
43991;DHT22;29654;50.784;20.604;2023-04-24T20:03:56;20.30;38.60
43991;DHT22;29654;50.784;20.604;2023-04-24T20:08:59;20.20;38.60
43991;DHT22;29654;50.784;20.604;2023-04-24T20:14:03;20.10;38.80
43991;DHT22;29654;50.784;20.604;2023-04-24T20:19:06;20.00;39.10
43991;DHT22;29654;50.784;20.604;2023-04-24T20:24:08;19.80;39.20
43991;DHT22;29654;50.784;20.604;2023-04-24T20:29:13;19.80;39.40
43991;DHT22;29654;50.784;20.604;2023-04-24T20:34:15;19.60;39.70
43991;DHT22;29654;50.784;20.604;2023-04-24T20:39:18;19.50;39.80
43991;DHT22;29654;50.784;20.604;2023-04-24T20:44:22;19.40;40.10
43991;DHT22;29654;50.784;20.604;2023-04-24T20:49:25;19.40;40.50
43991;DHT22;29654;50.784;20.604;2023-04-24T20:54:28;19.30;40.40
43991;DHT22;29654;50.784;20.604;2023-04-24T20:59:32;19.30;40.70
43991;DHT22;29654;50.784;20.604;2023-04-24T21:04:34;19.30;41.10
43991;DHT22;29654;50.784;20.604;2023-04-24T21:09:39;19.20;40.90
43991;DHT22;29654;50.784;20.604;2023-04-24T21:14:43;19.20;41.20
43991;DHT22;29654;50.784;20.604;2023-04-24T21:19:46;19.20;41.40
43991;DHT22;29654;50.784;20.604;2023-04-24T21:24:49;19.20;41.30
43991;DHT22;29654;50.784;20.604;2023-04-24T21:29:53;19.20;41.50
43991;DHT22;29654;50.784;20.604;2023-04-24T21:34:55;19.30;41.90
43991;DHT22;29654;50.784;20.604;2023-04-24T21:39:59;19.20;41.80
43991;DHT22;29654;50.784;20.604;2023-04-24T21:45:04;19.20;41.80
43991;DHT22;29654;50.784;20.604;2023-04-24T21:50:08;19.20;42.20
43991;DHT22;29654;50.784;20.604;2023-04-24T21:55:11;19.20;42.10
43991;DHT22;29654;50.784;20.604;2023-04-24T22:00:16;19.10;42.80
43991;DHT22;29654;50.784;20.604;2023-04-24T22:05:19;19.10;42.40
43991;DHT22;29654;50.784;20.604;2023-04-24T22:10:22;19.10;42.30
43991;DHT22;29654;50.784;20.604;2023-04-24T22:15:26;19.00;42.20
43991;DHT22;29654;50.784;20.604;2023-04-24T22:20:29;19.00;42.60
43991;DHT22;29654;50.784;20.604;2023-04-24T22:25:33;19.00;42.60
43991;DHT22;29654;50.784;20.604;2023-04-24T22:30:37;18.90;42.60
43991;DHT22;29654;50.784;20.604;2023-04-24T22:35:40;18.80;42.80
43991;DHT22;29654;50.784;20.604;2023-04-24T22:40:42;18.70;42.80
43991;DHT22;29654;50.784;20.604;2023-04-24T22:45:47;18.70;42.80
43991;DHT22;29654;50.784;20.604;2023-04-24T22:50:50;18.50;43.10
43991;DHT22;29654;50.784;20.604;2023-04-24T22:55:52;18.40;43.20
43991;DHT22;29654;50.784;20.604;2023-04-24T23:00:57;18.40;43.30
43991;DHT22;29654;50.784;20.604;2023-04-24T23:06:00;18.30;43.60
43991;DHT22;29654;50.784;20.604;2023-04-24T23:11:04;18.30;43.40
43991;DHT22;29654;50.784;20.604;2023-04-24T23:16:08;18.30;43.50
43991;DHT22;29654;50.784;20.604;2023-04-24T23:21:11;18.30;43.70
43991;DHT22;29654;50.784;20.604;2023-04-24T23:26:13;18.30;43.70
43991;DHT22;29654;50.784;20.604;2023-04-24T23:31:17;18.30;43.70
43991;DHT22;29654;50.784;20.604;2023-04-24T23:36:20;18.20;43.90
43991;DHT22;29654;50.784;20.604;2023-04-24T23:41:23;18.30;43.90
43991;DHT22;29654;50.784;20.604;2023-04-24T23:46:28;18.20;44.00
43991;DHT22;29654;50.784;20.604;2023-04-24T23:51:30;18.20;44.20
43991;DHT22;29654;50.784;20.604;2023-04-24T23:56:33;18.20;44.10
